NIGHT FOLDER

Government of Pakistan
Cabinet Secretariat (Aviation Division)
Pakistan Meteorological Department
Meteorological Office
Allama Iqbal International Airport Lahore
(Aviation Met Services)
ISO 9001:2015 Certified


LOCAL TAFORS

DATED:26th January 2022


TAF OPLA 26,1545Z 2618/2724 VRB02KT 1500 BR NSC FM262100 00000KT 0800 FG NSC PROB40 TEMPO 2623/2704 00000KT 0400 FG VV/// BECMG 2705/2707 33006KT 1500 FU FM270900 31008KT 3000 FU NSC FM271800 VRB02KT 1500 BR NSC
TAF OPKC 26,1545Z 2618/2724 06007KT 4000 FU NSC TEMPO 2701/2705 04005KT 3000 FU NSC BECMG 2709/2711 25012KT 6000 NSC FM271800 28007KT 4000 FU NSC
TAF OPIS 26,1545Z 2618/2724 29010KT 5000 HZ NSC TEMPO 2623/2704 3000 BR FEW040 TEMPO 2706/2712 29008G18KT 6000 FEW040 TEMPO 2722/2724 3000 BR
TAF OPNH 26,1545Z 2618/2724 05004KT 2000 FU NSC TEMPO 2700/2705 00000KT 1000 BR SCT030 BECMG 2709/2711 14008KT 4000 HZ NSC FM271800 36005KT 2000 FU NSC
TAF OPPS 26,1545Z 2618/2724 13004KT 5000 HZ FEW040 TEMPO 2700/2702 3000 BR BECMG 2704/2708 23004KT 5000 HZ FEW040 FEW100 BECMG 2712/2715 13004KT 4000 FU NSC
TAF OPQT 26,1545Z 2618/2724 29015KT CAVOK TEMPO 2702/2704 13005KT 4000 HZ NSC
TAF OPST 26,1545Z 2618/2724 31004KT 4000 FU SCT100 FM 2618/2704 00000KT 0100 FG VV/// BECMG 2704/2706 VRB03KT 1200 BR FEW100
TAF OPSK 26,1545Z 2618/2718 VRB03KT 2000 FU NSC TEMPO 2700/2705 00000KT 1000 BR SCT030 BECMG 2706/2708 14007KT 4000 HZ NSC
TAF OPFA 26,1545Z 2618/2712 23003KT 4000 FU NSC TEMPO 2700/2703 00000KT 0600 FG BECMG 2708/2712 27003KT 4000 HZ NSC
TAF OPBW 26,1545Z 2618/2712 18005KT 1500 BR NSC PROB30 TEMPO 2701/2705 00000KT 0700 FG FEW120 FM270700 18005KT 4000 FU NSC
TAF OPMT 26,1545Z 2618/2712 18005KT 2000 BR NSC PROB30 TEMPO 2701/2705 00000KT 0800 FG FEW120 FM270700 18005KT 4000 FU FEW120
TAF OPRK 26,1545Z 2618/2712 23005KT 3000 BR NSC PROB30 TEMPO 2700/2704 00000KT 1500 BR FEW120 FM270700 18005KT 4000 FU NSC
Time of Issue: 26,2018

(MUHAMMAD IQBAL)
DUTY FORECASTING OFFICER


EUROPE TAFORS

TAF OIII 261730Z 2618/2724 16008KT 7000 SCT040 BKN100 TEMPO 2621/2703 08012KT 5000 -SNRA FEW035CB SCT040 BKN100 BECMG 2706/2708 FEW035CB SCT040 BKN100 TEMPO 2709/2718 28010KT 3000 SNRA BR SCT030CB SCT035 OVC100 BECMG 2720/2822 30008KT FEW035 BKN100
TAF UTTT 261700Z 2618/2718 08008KT 3000 BR SCT007 TEMPO 2618/2704 VRB02KT 0200 FZFG VV002
TAF LTBA 261640Z 2618/2724 VRB02KT 9999 SCT035 BKN070 TEMPO 2618/2622 -SHSN SCT010 BKN025 PROB30 TEMPO 2622/2702 -SHSN SCT010 BKN025
TAF LFPO 261759Z 2618/2724 24005KT 6000 BKN012 TEMPO 2618/2709 3500 BR OVC007 PROB30 TEMPO 2622/2706 0800 FG VV/// BECMG 2709/2711 9999 BKN018 BECMG 2712/2714 BKN006 TEMPO 2715/2718 4000 -RADZ OVC004 BECMG 2718/2721 3500 BR OVC003 TEMPO 2721/2724 0500 FG VV///
TAF LFPG 261700Z 2618/2724 VRB03KT 6000 BKN011 TX06/2720Z TN01/2707Z PROB40 TEMPO 2622/2710 3000 BR BKN008 PROB30 TEMPO 2701/2706 0800 FG BKN002 BECMG 2710/2712 22010KT BKN015 TEMPO 2713/2721 2000 -RA BKN006 BECMG 2721/2723 0800 FG VV///
TAF LIRF 261833Z 2618/2724 VRB05KT 9999 BKN030 TEMPO 2618/2703 2000 BR BECMG 2711/2713 27010KT BECMG 2716/2718 VRB05KT
TAF LGAV 261700Z 2618/2718 32010KT 9999 FEW030
TAF UUEE 261650Z 2618/2718 29003MPS 6000 -SN BKN011 TXM06/2618Z TNM12/2702Z TEMPO 2618/2620 1500 SHSN BR FEW007 SCT016CB TEMPO 2620/2707 0300 FZFG OVC002 BECMG 2704/2706 19005MPS
TAF LIMC 261826Z 2618/2724 VRB05KT 0200 FG BKN004 BECMG 2620/2622 FZFG BECMG 2708/2710 2000 BR SCT010 BECMG 2716/2718 0400 FG BKN004
TAF EDDF 261700Z 2618/2724 22005KT 9999 OVC020 TEMPO 2618/2710 BKN012 PROB30 TEMPO 2700/2710 4000 BR BKN006 BECMG 2706/2709 20012KT TEMPO 2710/2720 22015G25KT BECMG 2710/2713 3500 DZRA BKN010
TAF EDDB 261700Z 2618/2718 25013KT 9999 BKN011 BECMG 2618/2622 BKN009 BECMG 2623/2702 BKN012 BECMG 2704/2706 24015G25KT BKN025 TEMPO 2706/2712 BKN012 BECMG 2708/2710 25020G30KT
TAF LSZH 261725Z 2618/2724 23004KT CAVOK TX05/2714Z TNM05/2701Z BECMG 2618/2620 7000 NSC BECMG 2621/2623 4500 BR BECMG 2623/2701 2000 BCFG BKN003 PROB40 2700/2709 0400 FZFG VV002 BECMG 2710/2712 7000 NSC BECMG 2712/2714 CAVOK BECMG 2718/2720 BKN025 PROB30 2721/2724 –FZDZ
TAF LOWW 261741Z 2618/2724 29015KT 9999 BKN020 TX06/2714Z TN01/2700Z TEMPO 2710/2714 22005KT TEMPO 2717/2724 29020G30KT –RA
TAF EKCH 261714Z 2618/2718 26017KT 9999 BKN015 BECMG 2621/2624 BKN012 TEMPO 2700/2708 25018G30KT 4000 RADZ BKN007 TEMPO 2708/2712 27025G40KT RA BKN015 TEMPO 2712/2718 28025G40KT
TAF EHAM 261717Z 2618/2724 23010KT 9999 BKN018 BECMG 2618/2621 25015KT PROB30 TEMPO 2618/2621 7000 BKN014 BECMG 2701/2704 24017G27KT BKN025 BECMG 2705/2708 7000 -RADZ OVC014 PROB40 TEMPO 2707/2711 3500 DZRA BKN007 BECMG 2709/2712 29016KT 9999 NSW SCT020 PROB40 TEMPO 2711/2714 30021G31KT 7000 -SHRA -RA BKN014 FEW020TCU BECMG 2720/2723 30011KT PROB30 TEMPO 2721/2724 32013G23KT 7000 -SHRA FEW020CB
TAF ENGM 261717Z 2618/2718 22008KT CAVOK BECMG 2623/2701 BKN008 TEMPO 2623/2702 3500 -RASN BKN004 TEMPO 2702/2711 2000 -DZ BR BKN004 BECMG 2709/2711 36012KT BKN015
TAF EGLL 261653Z 2618/2724 25010KT 9999 SCT028 BECMG 2704/2707 BKN010 TEMPO 2707/2712 8000 -RA BKN006 PROB30 TEMPO 2708/2711 4000 -RADZ BECMG 2711/2714 31010KT FEW030
TAF EGCC 261659Z 2618/2724 24009KT 9999 SCT030 PROB30 TEMPO 2621/2624 25015G25KT TEMPO 2700/2706 25015G25KT 8000 -RA BKN012 PROB40 TEMPO 2701/2704 4000 RA BKN008 PROB30 TEMPO 2704/2706 BKN005 PROB30 TEMPO 2706/2712 24015G25KT BECMG 2712/2715 30010KT
TAF EGBB 261706Z 2618/2718 25008KT 9999 FEW030 TEMPO 2701/2710 8000 BKN010 PROB30 TEMPO 2701/2706 26015G25KT PROB40 TEMPO 2704/2709 4000 RADZ BKN008 BECMG 2706/2709 31010KT
TAF EGPF 261659Z 2618/2718 23018G28KT 9999 SCT015 BKN035 TEMPO 2618/2623 7000 -DZRA BKN012 PROB40 TEMPO 2618/2621 2000 +RADZ BKN004 PROB30 TEMPO 2618/2621 25020G38KT PROB30 TEMPO 2701/2716 6000 SHRA BECMG 2703/2706 28009KT
TAF ESKN 261730Z 2618/2718 24007KT CAVOK TEMPO 2702/2718 4000 RA BR BKN008